Alvord, Texas
Current Conditions -  °F | °C
As of 7:35 AM on Friday 31 Oct 2014 (Local Time) from KLUD Reporting Station
Clear Clear  
Wind Chill: 50°   Ceiling: Unl
Heat Index: 50°   Visibility: 10mi
Dew Point: 38°   Wind: 5mph
Humidity: 62%   Direction: 350°N
Pressure: 30.29"   Gusts: NA
Location:  33.36°N, 97.69°W
Report Text: KLUD 311235Z AUTO 35004KT 10SM CLR 10/03 A3029 RMK AO2 T01010032
Loading
Personal Weather Stations






























Interactive Weather Map
Tropical Storm Tracking
New forecast layout! Learn more

10-Day Weather Forecast

Advertisements
Track Severe Weather on mobile